Time;durP1;ratioP1;P1;durP2;ratioP2;P2;SDS_P1;SDS_P2;PMS_P1;PMS_P2;Temp;Humidity;BMP_temperature;BMP_pressure;BME280_temperature;BME280_humidity;BME280_pressure;Samples;Min_cycle;Max_cycle;Signal;HPM_P1;HPM_P2
2021/03/18 00:02:04;;;;;;;24.00;10.20;;;;;;;1.35;54.48;102652.72;5028831;28;20486;-76
2021/03/18 00:04:31;;;;;;;20.65;9.32;;;;;;;1.40;54.29;102649.47;5046614;28;20033;-76
2021/03/18 00:06:57;;;;;;;22.67;10.68;;;;;;;1.33;54.24;102655.28;5044749;28;20038;-76
2021/03/18 00:09:23;;;;;;;26.80;11.07;;;;;;;1.18;54.49;102660.00;5029448;28;20071;-75
2021/03/18 00:11:51;;;;;;;26.10;10.27;;;;;;;1.19;54.66;102657.44;5036378;28;20040;-78
2021/03/18 00:14:23;;;;;;;33.33;9.73;;;;;;;1.21;54.52;102666.09;5067241;28;20116;-79
2021/03/18 00:16:49;;;;;;;27.17;10.40;;;;;;;1.20;54.59;102668.66;5027247;28;20022;-80
2021/03/18 00:19:15;;;;;;;29.95;11.20;;;;;;;1.12;54.51;102676.13;5040092;28;20033;-79
2021/03/18 00:21:41;;;;;;;28.95;11.48;;;;;;;1.15;54.58;102660.78;5023838;28;20040;-72
2021/03/18 00:24:07;;;;;;;29.00;11.80;;;;;;;1.19;54.62;102661.72;5023028;28;20198;-71
2021/03/18 00:26:33;;;;;;;24.40;10.85;;;;;;;1.12;54.65;102671.00;5038410;28;20037;-71
2021/03/18 00:29:00;;;;;;;28.13;11.80;;;;;;;1.03;54.57;102666.44;5040250;28;20503;-71
2021/03/18 00:31:30;;;;;;;44.13;9.00;;;;;;;0.98;54.58;102668.03;5038548;28;20396;-73
2021/03/18 00:33:56;;;;;;;20.10;9.07;;;;;;;1.07;54.72;102670.00;5022220;28;20049;-73
2021/03/18 00:36:22;;;;;;;21.20;9.50;;;;;;;1.09;54.54;102670.91;5040469;28;20116;-73
2021/03/18 00:38:49;;;;;;;22.73;9.00;;;;;;;1.18;54.46;102660.88;5039843;28;20025;-73
2021/03/18 00:41:15;;;;;;;21.92;8.23;;;;;;;1.20;54.63;102663.50;5039572;28;20025;-73
2021/03/18 00:43:41;;;;;;;16.67;8.60;;;;;;;1.30;54.42;102655.16;5024326;28;20028;-73
2021/03/18 00:46:09;;;;;;;18.48;7.90;;;;;;;1.27;54.46;102660.25;5044408;28;20113;-71
2021/03/18 00:48:39;;;;;;;15.45;6.70;;;;;;;1.21;54.50;102654.91;5018769;28;20112;-71
2021/03/18 00:51:12;;;;;;;17.30;6.40;;;;;;;1.15;54.73;102649.59;5035201;28;20429;-70
2021/03/18 00:53:41;;;;;;;11.98;6.10;;;;;;;1.22;54.69;102646.38;5034847;28;20033;-70
2021/03/18 00:56:13;;;;;;;26.42;7.40;;;;;;;1.20;54.77;102650.63;5016767;28;20033;-70
2021/03/18 00:58:43;;;;;;;12.38;5.45;;;;;;;1.17;54.88;102647.94;5033478;28;20036;-70
2021/03/18 01:01:12;;;;;;;21.95;6.05;;;;;;;1.23;55.02;102648.09;5017002;28;20029;-71
2021/03/18 01:03:40;;;;;;;15.75;4.75;;;;;;;1.34;54.51;102644.13;5035938;28;20403;-71
2021/03/18 01:06:09;;;;;;;14.55;4.55;;;;;;;1.34;54.52;102646.69;5032240;28;20029;-72
2021/03/18 01:08:37;;;;;;;13.38;4.47;;;;;;;1.30;54.93;102634.56;5014958;28;20118;-71
2021/03/18 01:11:11;;;;;;;9.35;3.35;;;;;;;1.30;54.76;102638.03;5014789;28;20037;-74
2021/03/18 01:13:40;;;;;;;12.35;5.15;;;;;;;1.35;54.81;102632.09;5003260;28;20053;-73
2021/03/18 01:16:14;;;;;;;12.93;4.63;;;;;;;1.36;54.70;102628.72;5036545;28;20048;-74
2021/03/18 01:19:01;;;;;;;12.23;4.90;;;;;;;1.37;54.88;102626.16;5020795;28;20093;-74
2021/03/18 01:21:33;;;;;;;9.90;4.15;;;;;;;1.38;54.87;102627.91;5022236;28;20044;-74
2021/03/18 01:23:59;;;;;;;9.13;3.35;;;;;;;1.45;54.76;102629.84;5033957;28;20558;-74
2021/03/18 01:26:25;;;;;;;8.32;3.28;;;;;;;1.46;54.44;102622.97;5039344;28;20219;-74
2021/03/18 01:28:50;;;;;;;4.60;2.28;;;;;;;1.46;54.38;102626.47;5022179;28;20140;-74
2021/03/18 01:31:16;;;;;;;9.98;3.85;;;;;;;1.41;54.39;102617.72;5038410;28;20029;-74
2021/03/18 01:33:42;;;;;;;9.68;2.75;;;;;;;1.39;54.34;102614.19;5018725;28;20045;-73
2021/03/18 01:36:12;;;;;;;7.55;3.53;;;;;;;1.37;54.51;102605.53;5034453;28;20112;-73
2021/03/18 01:38:42;;;;;;;5.18;2.85;;;;;;;1.38;54.49;102602.16;5018754;28;20029;-74
2021/03/18 01:41:08;;;;;;;6.90;1.65;;;;;;;1.32;54.53;102607.13;5019362;28;20087;-74
2021/03/18 01:43:34;;;;;;;11.82;3.30;;;;;;;1.28;54.49;102595.00;5040818;28;20025;-74
2021/03/18 01:45:59;;;;;;;4.05;2.13;;;;;;;1.28;54.42;102600.16;5028212;28;20086;-73
2021/03/18 01:48:25;;;;;;;9.25;2.25;;;;;;;1.33;54.41;102593.44;5036215;28;20087;-74
2021/03/18 01:50:51;;;;;;;9.68;2.00;;;;;;;1.33;54.40;102593.44;5046703;28;20029;-74
2021/03/18 01:53:20;;;;;;;7.95;2.47;;;;;;;1.25;54.49;102600.09;5034155;28;20052;-75
2021/03/18 01:55:47;;;;;;;6.47;2.30;;;;;;;1.36;54.09;102596.09;5040404;28;20254;-73
2021/03/18 01:58:14;;;;;;;5.45;2.22;;;;;;;1.39;54.04;102593.56;5036195;28;20040;-74
2021/03/18 02:00:42;;;;;;;6.00;2.05;;;;;;;1.37;54.24;102595.22;5034427;28;20029;-75
2021/03/18 02:03:08;;;;;;;4.85;2.15;;;;;;;1.37;53.86;102596.94;5035456;28;20478;-73
2021/03/18 02:05:34;;;;;;;5.70;2.03;;;;;;;1.40;53.73;102600.53;5039178;28;20445;-74
2021/03/18 02:08:01;;;;;;;5.70;3.00;;;;;;;1.40;53.60;102600.53;5015617;28;20140;-73
2021/03/18 02:10:33;;;;;;;13.63;2.72;;;;;;;1.37;53.57;102597.81;5033048;28;20045;-74
2021/03/18 02:12:59;;;;;;;6.53;2.50;;;;;;;1.14;54.45;102592.06;5030947;28;20539;-72
2021/03/18 02:15:30;;;;;;;9.25;3.03;;;;;;;1.11;54.56;102595.44;5035843;28;20035;-72
2021/03/18 02:18:12;;;;;;;7.15;1.98;;;;;;;1.20;54.41;102581.06;5037255;28;20040;-71
2021/03/18 02:20:43;;;;;;;5.32;2.28;;;;;;;1.19;54.07;102585.31;5033457;28;20060;-72
2021/03/18 02:23:40;;;;;;;4.53;1.50;;;;;;;1.10;53.98;102579.94;5017078;28;20030;-71
2021/03/18 02:26:28;;;;;;;6.45;2.38;;;;;;;0.92;53.96;102575.16;5039579;28;20428;-74
2021/03/18 02:29:06;;;;;;;4.88;2.28;;;;;;;0.77;54.01;102579.88;5032406;28;20033;-70
2021/03/18 02:31:53;;;;;;;9.45;2.50;;;;;;;0.74;53.94;102587.53;5016670;28;20037;-70
2021/03/18 02:34:39;;;;;;;6.35;2.22;;;;;;;0.73;53.77;102591.81;5033334;28;20025;-71
2021/03/18 02:37:12;;;;;;;6.30;1.98;;;;;;;0.58;53.75;102588.78;5018675;28;20396;-70
2021/03/18 02:39:47;;;;;;;3.17;1.90;;;;;;;0.54;53.79;102585.25;5033334;28;20030;-70
2021/03/18 02:42:18;;;;;;;7.10;2.20;;;;;;;0.52;54.40;102568.88;5021963;28;20108;-71
2021/03/18 02:44:45;;;;;;;8.02;2.20;;;;;;;0.53;53.98;102574.91;5032475;28;20119;-70
2021/03/18 02:47:12;;;;;;;11.38;2.17;;;;;;;0.40;54.03;102573.69;5035453;28;20413;-72
2021/03/18 02:49:43;;;;;;;2.00;0.98;;;;;;;0.55;53.78;102584.44;5031900;28;20044;-72
2021/03/18 02:52:15;;;;;;;6.85;1.90;;;;;;;0.48;53.94;102577.38;5033247;28;20037;-71
2021/03/18 02:54:44;;;;;;;4.82;1.40;;;;;;;0.43;54.05;102568.63;5035668;28;20032;-72
2021/03/18 02:57:12;;;;;;;5.72;1.60;;;;;;;0.43;54.19;102553.19;5033770;28;20037;-71
2021/03/18 02:59:40;;;;;;;3.47;1.10;;;;;;;0.44;54.60;102565.22;5035789;28;20083;-72
2021/03/18 03:02:13;;;;;;;5.70;1.90;;;;;;;0.41;54.42;102565.13;5037358;28;20048;-71
2021/03/18 03:04:40;;;;;;;4.90;2.15;;;;;;;0.45;54.28;102566.97;5035070;28;20033;-71
2021/03/18 03:07:07;;;;;;;6.68;1.38;;;;;;;0.45;54.42;102566.97;5016934;28;20500;-72
2021/03/18 03:09:34;;;;;;;3.17;1.40;;;;;;;0.52;54.29;102568.00;5016211;28;20033;-72
2021/03/18 03:12:01;;;;;;;4.82;1.85;;;;;;;0.51;54.37;102556.84;5036161;28;20404;-72
2021/03/18 03:14:28;;;;;;;3.30;1.30;;;;;;;0.56;54.54;102551.84;5035800;28;20045;-72
2021/03/18 03:16:54;;;;;;;3.30;1.13;;;;;;;0.63;54.43;102553.75;5014928;28;20037;-72
2021/03/18 03:19:20;;;;;;;9.50;1.90;;;;;;;0.65;54.34;102555.53;5036301;28;20028;-72
2021/03/18 03:21:47;;;;;;;5.30;1.00;;;;;;;0.77;54.16;102549.88;5034410;28;20033;-72
2021/03/18 03:24:13;;;;;;;5.35;1.05;;;;;;;0.87;54.09;102536.41;5016485;28;20037;-72
2021/03/18 03:26:40;;;;;;;3.60;1.00;;;;;;;0.89;53.88;102550.19;5011988;28;20464;-71
2021/03/18 03:29:07;;;;;;;5.80;1.08;;;;;;;0.89;54.02;102539.03;5036931;28;20107;-75
2021/03/18 03:31:33;;;;;;;2.42;0.75;;;;;;;0.89;54.23;102539.03;5020763;28;20495;-75
2021/03/18 03:34:00;;;;;;;5.13;1.27;;;;;;;0.93;54.03;102535.72;5016150;28;20525;-75
2021/03/18 03:36:25;;;;;;;3.28;0.90;;;;;;;0.95;54.02;102539.22;5026486;28;20033;-79
2021/03/18 03:38:51;;;;;;;3.58;1.33;;;;;;;1.01;54.04;102534.19;5057434;28;20068;-76
2021/03/18 03:41:16;;;;;;;5.95;1.33;;;;;;;1.07;54.08;102528.34;5046600;28;20089;-77
2021/03/18 03:43:42;;;;;;;1.90;1.20;;;;;;;1.06;54.39;102537.78;5036243;28;20021;-77
2021/03/18 03:46:08;;;;;;;8.43;1.95;;;;;;;1.14;53.96;102534.53;5048849;28;20048;-77
2021/03/18 03:48:34;;;;;;;4.13;1.02;;;;;;;1.18;53.78;102541.50;5024421;28;20040;-73
2021/03/18 03:51:02;;;;;;;2.72;1.33;;;;;;;1.07;53.73;102548.97;5018187;28;20392;-72
2021/03/18 03:53:41;;;;;;;2.97;1.23;;;;;;;1.09;53.80;102548.16;5036471;28;20043;-71
2021/03/18 03:56:19;;;;;;;2.47;1.05;;;;;;;1.11;53.62;102538.78;5016863;28;20033;-72
2021/03/18 03:59:16;;;;;;;8.63;1.35;;;;;;;1.13;53.49;102535.34;5035427;28;20132;-71
2021/03/18 04:01:49;;;;;;;2.05;0.82;;;;;;;1.10;53.71;102534.47;5030225;28;20048;-73
2021/03/18 04:04:20;;;;;;;3.38;0.50;;;;;;;1.13;54.02;102541.41;5014306;28;20475;-72
2021/03/18 04:06:49;;;;;;;5.28;0.70;;;;;;;1.22;53.88;102533.03;5025281;28;20037;-73
2021/03/18 04:09:18;;;;;;;6.47;1.25;;;;;;;1.23;54.26;102534.78;5033475;28;20099;-73
2021/03/18 04:11:45;;;;;;;5.18;1.50;;;;;;;1.24;54.78;102526.22;5035884;28;20033;-72
2021/03/18 04:14:12;;;;;;;6.72;0.88;;;;;;;1.36;54.51;102521.38;5022771;28;20033;-73
2021/03/18 04:16:42;;;;;;;5.25;0.88;;;;;;;1.46;54.53;102519.91;5039915;28;20033;-72
2021/03/18 04:19:09;;;;;;;3.60;1.05;;;;;;;1.50;54.36;102509.72;5030343;28;20029;-72
2021/03/18 04:21:38;;;;;;;4.80;1.40;;;;;;;1.60;54.24;102500.50;5032426;28;20039;-72
2021/03/18 04:24:07;;;;;;;4.95;0.90;;;;;;;1.61;53.97;102498.78;5037119;28;20037;-73
2021/03/18 04:26:34;;;;;;;5.80;1.20;;;;;;;1.64;53.50;102492.03;5030355;28;20503;-73
2021/03/18 04:29:04;;;;;;;3.67;0.88;;;;;;;1.55;53.47;102490.91;5032813;28;20048;-72
2021/03/18 04:31:32;;;;;;;10.20;0.80;;;;;;;1.54;53.49;102489.19;5032899;28;20100;-72
2021/03/18 04:33:58;;;;;;;3.55;1.23;;;;;;;1.53;52.91;102493.47;5036219;28;20037;-70
2021/03/18 04:36:24;;;;;;;5.97;1.42;;;;;;;1.25;53.15;102487.59;5009822;28;20029;-73
2021/03/18 04:38:51;;;;;;;4.25;1.45;;;;;;;1.10;53.63;102490.69;5031437;28;20048;-72
2021/03/18 04:41:17;;;;;;;6.20;1.05;;;;;;;1.20;53.31;102478.91;5016117;28;20037;-71
2021/03/18 04:43:43;;;;;;;5.78;1.70;;;;;;;1.22;53.51;102478.94;5032084;28;20017;-71
2021/03/18 04:46:09;;;;;;;3.67;0.80;;;;;;;1.22;53.13;102476.38;5021979;28;20057;-70
2021/03/18 04:48:38;;;;;;;3.10;1.45;;;;;;;1.19;53.36;102471.13;5017421;28;20068;-71
2021/03/18 04:51:08;;;;;;;8.93;1.48;;;;;;;1.02;53.29;102479.31;5013800;28;20501;-72
2021/03/18 04:53:35;;;;;;;5.32;1.48;;;;;;;1.00;53.46;102473.25;5018268;28;20037;-71
2021/03/18 04:56:02;;;;;;;6.80;1.45;;;;;;;1.03;53.55;102468.16;5031370;28;20055;-71
2021/03/18 04:58:30;;;;;;;6.68;1.52;;;;;;;1.09;53.34;102470.03;5033555;28;20078;-73
2021/03/18 05:00:57;;;;;;;6.65;1.27;;;;;;;1.12;53.26;102464.94;5034327;28;20029;-71
2021/03/18 05:03:22;;;;;;;5.60;1.65;;;;;;;1.05;53.27;102474.22;5033041;28;20452;-72
2021/03/18 05:05:50;;;;;;;2.40;1.70;;;;;;;1.07;53.49;102469.13;5031595;28;20060;-72
2021/03/18 05:08:18;;;;;;;5.90;1.33;;;;;;;1.18;53.29;102464.25;5030409;28;20487;-72
2021/03/18 05:10:45;;;;;;;2.92;1.65;;;;;;;1.15;53.03;102464.16;5034411;28;20115;-71
2021/03/18 05:13:12;;;;;;;5.75;1.95;;;;;;;1.15;53.15;102459.91;5031085;28;20033;-72
2021/03/18 05:15:39;;;;;;;4.13;1.30;;;;;;;1.04;53.63;102461.34;5013055;28;20033;-70
2021/03/18 05:18:09;;;;;;;4.22;1.63;;;;;;;1.02;53.39;102461.28;5016289;28;20029;-70
2021/03/18 05:20:36;;;;;;;3.33;1.27;;;;;;;1.02;53.64;102456.13;5032797;28;20444;-71
2021/03/18 05:23:01;;;;;;;2.17;1.23;;;;;;;1.07;53.47;102449.38;5034829;28;20036;-71
2021/03/18 05:25:30;;;;;;;5.80;1.50;;;;;;;1.14;53.35;102447.84;5033595;28;20108;-71
2021/03/18 05:27:57;;;;;;;4.18;1.15;;;;;;;1.05;53.35;102453.63;5014268;28;20052;-73
2021/03/18 05:30:25;;;;;;;3.67;1.17;;;;;;;0.99;53.54;102442.31;5032919;28;20499;-71
2021/03/18 05:32:51;;;;;;;2.83;0.85;;;;;;;0.96;53.42;102427.66;5016769;28;20044;-74
2021/03/18 05:35:17;;;;;;;4.05;1.85;;;;;;;1.01;53.39;102432.91;5031371;28;20037;-71
2021/03/18 05:37:43;;;;;;;3.95;1.30;;;;;;;0.95;53.41;102443.94;5019565;28;20032;-71
2021/03/18 05:40:12;;;;;;;4.32;1.52;;;;;;;0.95;53.45;102449.09;5015057;28;20112;-73
2021/03/18 05:42:38;;;;;;;4.07;1.20;;;;;;;0.90;53.24;102438.69;5034814;28;20025;-71
2021/03/18 05:45:06;;;;;;;3.42;1.02;;;;;;;0.92;53.32;102435.25;5030940;28;20098;-71
2021/03/18 05:47:33;;;;;;;5.22;1.25;;;;;;;0.91;53.24;102429.25;5029961;28;20040;-72
2021/03/18 05:49:59;;;;;;;2.30;1.00;;;;;;;0.86;53.27;102436.00;5032323;28;20040;-71
2021/03/18 05:52:30;;;;;;;3.10;1.35;;;;;;;0.82;53.27;102435.03;5030735;28;20033;-71
2021/03/18 05:54:57;;;;;;;7.15;1.15;;;;;;;0.90;53.32;102440.38;5032714;28;20094;-71
2021/03/18 05:57:23;;;;;;;4.78;1.52;;;;;;;1.01;52.99;102446.66;5022148;28;20032;-70
2021/03/18 05:59:50;;;;;;;3.00;1.23;;;;;;;1.01;53.14;102445.78;5035386;28;20025;-70
2021/03/18 06:02:16;;;;;;;8.77;1.50;;;;;;;1.04;53.21;102441.59;5032353;28;20038;-71
2021/03/18 06:04:42;;;;;;;5.57;1.40;;;;;;;1.11;53.13;102445.19;5030827;28;20040;-72
2021/03/18 06:07:08;;;;;;;9.00;1.40;;;;;;;1.28;52.24;102455.91;5032027;28;20037;-71
2021/03/18 06:09:35;;;;;;;3.10;1.77;;;;;;;1.32;52.01;102461.16;5033311;28;20029;-73
2021/03/18 06:12:02;;;;;;;5.50;1.52;;;;;;;1.31;52.08;102453.41;5031717;28;20033;-72
2021/03/18 06:14:27;;;;;;;1.60;1.13;;;;;;;1.26;52.29;102457.56;5029992;28;20045;-73
2021/03/18 06:16:54;;;;;;;8.30;1.35;;;;;;;1.35;52.21;102459.47;5033142;28;20025;-71
2021/03/18 06:19:20;;;;;;;5.47;1.65;;;;;;;1.60;52.24;102448.09;5015069;28;20518;-72
2021/03/18 06:21:56;;;;;;;3.92;1.77;;;;;;;1.81;51.79;102451.13;5035197;28;20052;-73
2021/03/18 06:24:23;;;;;;;4.72;1.85;;;;;;;2.10;50.73;102450.88;5030758;28;20540;-71
2021/03/18 06:26:49;;;;;;;5.00;1.63;;;;;;;2.55;51.06;102455.19;5028353;28;20030;-72
2021/03/18 06:29:35;;;;;;;6.03;2.17;;;;;;;3.01;50.30;102452.59;5032532;28;20045;-72
2021/03/18 06:32:15;;;;;;;2.88;1.13;;;;;;;3.34;49.27;102460.06;5034193;28;20040;-72
2021/03/18 06:34:44;;;;;;;4.90;1.80;;;;;;;3.73;47.44;102458.88;5029595;28;20029;-73
2021/03/18 06:37:28;;;;;;;4.35;1.88;;;;;;;4.19;46.71;102451.75;5019503;28;20036;-71
2021/03/18 06:39:59;;;;;;;6.05;1.50;;;;;;;4.61;46.25;102450.47;5031061;28;20030;-72
2021/03/18 06:42:24;;;;;;;4.93;1.38;;;;;;;4.79;43.94;102437.69;5033615;28;20492;-71
2021/03/18 06:45:06;;;;;;;5.00;1.05;;;;;;;4.80;45.15;102444.59;5029396;28;20057;-71
2021/03/18 06:47:48;;;;;;;6.07;2.13;;;;;;;4.96;44.33;102439.59;5013034;28;20033;-71
2021/03/18 06:50:18;;;;;;;6.80;1.27;;;;;;;4.88;44.01;102430.88;5019563;28;20029;-71
2021/03/18 06:52:44;;;;;;;3.72;1.77;;;;;;;4.73;44.54;102432.44;5033483;28;20046;-72
2021/03/18 06:55:12;;;;;;;6.10;2.08;;;;;;;4.48;45.58;102441.72;5031050;28;20025;-71
2021/03/18 06:57:38;;;;;;;6.00;2.55;;;;;;;3.88;46.87;102442.72;5018417;28;20035;-72
2021/03/18 07:00:08;;;;;;;4.30;1.65;;;;;;;4.09;47.14;102434.34;5037929;28;20589;-71
2021/03/18 07:02:39;;;;;;;9.20;3.00;;;;;;;4.06;47.48;102437.78;5019564;28;20057;-71
2021/03/18 07:05:16;;;;;;;2.65;1.50;;;;;;;4.07;46.88;102431.72;5035944;28;20045;-70
2021/03/18 07:07:41;;;;;;;3.00;1.63;;;;;;;4.49;47.56;102432.22;5034428;28;20495;-70
2021/03/18 07:10:07;;;;;;;5.43;2.13;;;;;;;4.39;47.66;102426.94;5018707;28;20065;-71
2021/03/18 07:12:33;;;;;;;3.92;1.63;;;;;;;4.73;46.61;102431.59;5034238;28;20033;-71
2021/03/18 07:15:00;;;;;;;3.28;1.25;;;;;;;4.48;46.91;102431.34;5037065;28;20457;-71
2021/03/18 07:17:30;;;;;;;5.00;2.00;;;;;;;4.70;46.91;102437.63;5022840;28;20029;-72
2021/03/18 07:20:19;;;;;;;3.03;1.23;;;;;;;4.80;46.44;102426.47;5036841;28;20337;-70
2021/03/18 07:22:46;;;;;;;4.05;1.20;;;;;;;4.95;46.97;102422.31;5034984;28;21771;-71
2021/03/18 07:25:13;;;;;;;3.95;1.30;;;;;;;4.86;46.20;102425.66;5039506;28;20030;-70
2021/03/18 07:27:42;;;;;;;3.45;1.00;;;;;;;4.92;46.98;102418.00;5022990;28;20037;-71
2021/03/18 07:30:09;;;;;;;3.17;0.73;;;;;;;5.02;47.15;102418.94;5016116;28;20040;-71
2021/03/18 07:32:35;;;;;;;6.07;0.75;;;;;;;5.23;46.10;102419.09;5039341;28;20080;-72
2021/03/18 07:35:00;;;;;;;4.43;1.35;;;;;;;5.35;47.19;102415.72;5035505;28;20049;-71
2021/03/18 07:37:26;;;;;;;1.95;0.85;;;;;;;5.39;46.20;102409.69;5038837;28;20033;-72
2021/03/18 07:39:51;;;;;;;7.30;1.27;;;;;;;5.70;46.53;102414.16;5038689;28;20045;-70
2021/03/18 07:42:17;;;;;;;6.43;1.20;;;;;;;6.09;46.39;102414.34;5035931;28;20131;-70
2021/03/18 07:44:44;;;;;;;6.50;1.38;;;;;;;6.62;43.84;102415.38;5027790;28;20040;-71
2021/03/18 07:47:11;;;;;;;2.70;1.30;;;;;;;7.82;40.65;102403.94;5000349;28;20037;-72
2021/03/18 07:49:44;;;;;;;7.35;1.45;;;;;;;9.92;36.99;102404.00;5034334;28;20515;-71
2021/03/18 07:52:15;;;;;;;3.65;0.40;;;;;;;10.03;36.47;102402.09;5035516;28;20510;-71
2021/03/18 07:54:45;;;;;;;4.22;0.60;;;;;;;9.43;37.15;102404.53;5016759;28;20095;-70
2021/03/18 07:57:15;;;;;;;2.58;0.50;;;;;;;8.98;37.05;102408.47;5032930;28;20095;-71
2021/03/18 07:59:42;;;;;;;5.20;0.52;;;;;;;8.44;38.82;102397.53;5032014;28;20037;-72
2021/03/18 08:02:16;;;;;;;4.53;0.60;;;;;;;7.93;40.04;102402.16;5034707;28;20402;-72
2021/03/18 08:04:45;;;;;;;2.08;0.38;;;;;;;8.62;40.25;102409.56;5033465;28;20041;-71
2021/03/18 08:07:11;;;;;;;4.95;0.73;;;;;;;10.57;36.33;102410.06;5029829;28;20491;-72
2021/03/18 08:09:36;;;;;;;2.72;0.47;;;;;;;11.68;33.28;102395.00;5030551;28;20034;-71
2021/03/18 08:12:02;;;;;;;4.20;0.30;;;;;;;11.05;32.95;102391.81;5014634;28;20043;-72
2021/03/18 08:14:27;;;;;;;3.88;0.40;;;;;;;9.68;35.55;102392.06;5036950;28;20045;-72
2021/03/18 08:16:53;;;;;;;5.43;0.30;;;;;;;8.34;37.61;102393.28;5035518;28;20033;-72
2021/03/18 08:19:20;;;;;;;2.33;0.82;;;;;;;6.96;40.58;102391.97;5030615;28;20044;-71
2021/03/18 08:21:47;;;;;;;3.90;0.50;;;;;;;6.19;41.89;102381.47;5027507;28;20041;-71
2021/03/18 08:24:24;;;;;;;4.93;0.22;;;;;;;5.74;42.53;102382.19;5030201;28;20048;-72
2021/03/18 08:26:56;;;;;;;8.07;0.85;;;;;;;5.69;43.42;102381.31;5031461;28;20115;-72
2021/03/18 08:29:26;;;;;;;2.83;0.75;;;;;;;6.01;43.37;102376.22;5031250;28;20045;-72
2021/03/18 08:31:56;;;;;;;3.55;0.47;;;;;;;6.12;42.90;102377.13;5035378;28;20032;-72
2021/03/18 08:34:40;;;;;;;4.03;0.60;;;;;;;6.29;41.95;102379.81;5014295;28;20523;-72
2021/03/18 08:37:06;;;;;;;0.43;0.20;;;;;;;6.62;39.87;102385.91;5035092;28;20032;-73
2021/03/18 08:39:40;;;;;;;3.60;0.15;;;;;;;8.90;36.06;102367.69;5015648;28;20029;-69
2021/03/18 08:42:29;;;;;;;2.03;0.10;;;;;;;10.40;32.51;102365.00;5030213;28;20308;-73
2021/03/18 08:45:00;;;;;;;0.75;0.10;;;;;;;10.84;31.96;102360.84;5031674;28;20116;-72
2021/03/18 08:47:43;;;;;;;5.55;0.30;;;;;;;8.98;33.15;102368.47;5012244;28;20039;-72
2021/03/18 08:50:13;;;;;;;1.38;0.50;;;;;;;7.26;36.46;102372.84;5013859;28;20103;-71
2021/03/18 08:52:45;;;;;;;3.03;0.10;;;;;;;6.68;37.53;102380.72;5029497;28;20088;-72
2021/03/18 08:55:12;;;;;;;3.30;0.20;;;;;;;6.48;38.98;102376.38;5031889;28;20412;-73
2021/03/18 08:57:39;;;;;;;0.85;0.10;;;;;;;5.56;40.04;102380.38;5029777;28;20033;-72
2021/03/18 09:00:18;;;;;;;1.52;0.10;;;;;;;5.86;39.73;102379.66;5012683;28;20770;-71
2021/03/18 09:02:43;;;;;;;2.15;0.20;;;;;;;6.10;38.74;102384.03;5016488;28;20487;-72
2021/03/18 09:05:17;;;;;;;0.52;0.10;;;;;;;6.57;38.83;102388.50;5013217;28;20033;-73
2021/03/18 09:07:44;;;;;;;1.77;0.55;;;;;;;7.30;36.26;102382.38;5027814;28;20083;-71
2021/03/18 09:10:13;;;;;;;0.40;0.20;;;;;;;7.01;36.69;102379.84;5012376;28;20053;-72
2021/03/18 09:12:41;;;;;;;1.55;0.15;;;;;;;7.95;35.05;102377.00;5008130;28;20136;-74
2021/03/18 09:15:13;;;;;;;0.60;0.13;;;;;;;8.09;35.00;102380.41;5016964;28;20045;-71
2021/03/18 09:17:39;;;;;;;6.40;0.20;;;;;;;7.65;35.06;102376.25;5029952;28;20029;-70
2021/03/18 09:20:05;;;;;;;1.40;0.22;;;;;;;7.44;34.54;102371.94;5016704;28;20544;-75
2021/03/18 09:22:30;;;;;;;2.85;0.10;;;;;;;7.77;35.32;102377.09;5014841;28;20034;-72
2021/03/18 09:24:59;;;;;;;0.68;0.20;;;;;;;8.31;33.49;102372.44;5026037;28;20098;-72
2021/03/18 09:27:32;;;;;;;1.70;0.20;;;;;;;7.77;34.81;102374.47;5032277;28;20236;-71
2021/03/18 09:30:12;;;;;;;0.32;0.10;;;;;;;8.21;34.57;102376.00;5034458;28;20400;-71
2021/03/18 09:32:37;;;;;;;1.33;0.10;;;;;;;8.03;33.93;102383.03;5028669;28;20482;-72
2021/03/18 09:35:03;;;;;;;1.35;0.15;;;;;;;8.13;33.81;102374.28;5007714;28;20128;-73
2021/03/18 09:37:37;;;;;;;2.05;0.10;;;;;;;8.61;33.77;102373.13;5027757;28;20678;-73
2021/03/18 09:40:05;;;;;;;0.75;0.13;;;;;;;9.16;33.03;102373.53;5012083;28;20088;-72
2021/03/18 09:42:30;;;;;;;0.95;0.10;;;;;;;10.00;30.85;102368.19;5028683;28;20060;-72
2021/03/18 09:44:57;;;;;;;1.92;0.10;;;;;;;9.20;31.50;102371.72;5009712;28;20033;-73
2021/03/18 09:47:23;;;;;;;2.97;0.10;;;;;;;8.10;33.99;102363.91;5013126;28;20531;-72
2021/03/18 09:49:51;;;;;;;0.30;0.10;;;;;;;7.87;34.57;102373.56;5005275;28;20033;-74
2021/03/18 09:52:22;;;;;;;0.85;0.50;;;;;;;7.39;36.05;102375.44;5011267;28;20045;-72
2021/03/18 09:54:49;;;;;;;3.85;0.17;;;;;;;7.00;36.50;102369.44;5003100;28;20555;-71
2021/03/18 09:57:15;;;;;;;2.03;0.30;;;;;;;6.75;37.49;102369.44;5026386;28;20152;-72
2021/03/18 09:59:41;;;;;;;2.78;0.20;;;;;;;6.52;37.74;102363.41;5029537;28;20116;-72
2021/03/18 10:02:08;;;;;;;0.40;0.10;;;;;;;6.44;38.09;102356.47;5027389;28;20029;-72
2021/03/18 10:04:41;;;;;;;0.40;0.10;;;;;;;6.11;38.52;102366.78;5024202;28;20056;-72
2021/03/18 10:07:08;;;;;;;0.55;0.30;;;;;;;6.20;38.75;102357.25;5029944;28;20117;-71
2021/03/18 10:09:41;;;;;;;1.48;0.30;;;;;;;6.37;39.33;102357.31;5014067;28;20026;-72
2021/03/18 10:12:16;;;;;;;0.30;0.10;;;;;;;6.63;37.77;102353.88;5010730;28;20171;-71
2021/03/18 10:14:53;;;;;;;1.67;0.30;;;;;;;7.00;36.45;102356.44;5008909;28;20040;-73
2021/03/18 10:17:24;;;;;;;0.95;0.17;;;;;;;7.06;35.95;102354.69;5030117;28;20043;-71
2021/03/18 10:20:10;;;;;;;0.65;0.20;;;;;;;7.00;36.09;102359.03;5019538;28;20404;-75
2021/03/18 10:22:47;;;;;;;0.40;0.20;;;;;;;6.75;36.84;102348.66;5025401;28;20518;-72
2021/03/18 10:25:24;;;;;;;1.05;0.20;;;;;;;6.72;37.15;102353.88;5030463;28;20029;-71
2021/03/18 10:27:57;;;;;;;0.55;0.20;;;;;;;7.11;37.40;102352.13;5008178;28;20038;-70
2021/03/18 10:30:24;;;;;;;0.63;0.22;;;;;;;7.26;36.82;102346.84;5030017;28;20043;-75
2021/03/18 10:33:01;;;;;;;0.90;0.50;;;;;;;7.66;36.62;102340.69;5029273;28;20062;-71
2021/03/18 10:35:29;;;;;;;1.13;0.28;;;;;;;7.19;35.68;102345.16;5027708;28;20125;-71
2021/03/18 10:37:54;;;;;;;0.60;0.20;;;;;;;7.29;35.59;102351.22;5035961;28;20395;-72
2021/03/18 10:40:24;;;;;;;2.88;0.73;;;;;;;7.40;36.51;102348.56;5029070;28;20131;-71
2021/03/18 10:42:52;;;;;;;1.88;0.20;;;;;;;7.44;36.50;102345.06;5022941;28;20693;-71
2021/03/18 10:45:21;;;;;;;2.22;0.43;;;;;;;7.33;36.34;102340.78;5011154;28;20086;-72
2021/03/18 10:47:47;;;;;;;1.52;0.60;;;;;;;6.99;36.61;102347.78;5028400;28;20292;-71
2021/03/18 10:50:15;;;;;;;2.60;0.30;;;;;;;7.29;36.58;102346.88;5026342;28;20103;-72
2021/03/18 10:53:00;;;;;;;1.30;0.30;;;;;;;7.58;36.38;102332.94;5031345;28;20029;-71
2021/03/18 10:55:30;;;;;;;2.20;0.20;;;;;;;7.70;35.57;102329.41;5030214;28;20116;-72
2021/03/18 10:58:07;;;;;;;1.92;0.15;;;;;;;7.61;34.97;102322.50;5012526;28;20041;-72
2021/03/18 11:00:36;;;;;;;2.95;0.30;;;;;;;7.24;35.74;102332.97;5031101;28;20028;-73
2021/03/18 11:03:13;;;;;;;6.80;0.63;;;;;;;7.55;35.02;102327.72;4997277;28;20071;-73
2021/03/18 11:05:42;;;;;;;2.75;0.40;;;;;;;7.51;35.68;102329.44;5030140;28;20037;-72
2021/03/18 11:08:09;;;;;;;1.35;0.30;;;;;;;7.43;36.27;102322.53;5015474;28;20032;-71
2021/03/18 11:10:41;;;;;;;0.43;0.10;;;;;;;7.59;35.51;102324.25;5029487;28;20032;-71
2021/03/18 11:13:09;;;;;;;4.55;0.63;;;;;;;7.92;35.35;102323.19;5032959;28;20029;-71
2021/03/18 11:15:51;;;;;;;1.92;0.52;;;;;;;7.77;35.12;102317.22;5028593;28;20162;-71
2021/03/18 11:18:18;;;;;;;3.67;0.30;;;;;;;7.81;35.58;102308.53;5037273;28;20116;-72
2021/03/18 11:20:46;;;;;;;0.63;0.20;;;;;;;7.64;35.95;102314.66;5014939;28;20037;-71
2021/03/18 11:23:12;;;;;;;0.80;0.43;;;;;;;7.74;35.40;102311.16;5032346;28;20063;-72
2021/03/18 11:25:40;;;;;;;2.33;0.20;;;;;;;7.14;36.12;102305.28;5027559;28;20029;-72
2021/03/18 11:28:12;;;;;;;0.43;0.22;;;;;;;7.15;36.41;102301.81;5032068;28;20029;-72
2021/03/18 11:30:37;;;;;;;3.30;0.52;;;;;;;7.25;35.66;102297.47;5032026;28;20048;-71
2021/03/18 11:33:33;;;;;;;0.20;0.10;;;;;;;7.57;35.87;102299.97;5030737;28;20041;-71
2021/03/18 11:36:03;;;;;;;2.28;0.25;;;;;;;7.91;36.13;102302.38;5009671;28;20072;-71
2021/03/18 11:38:29;;;;;;;1.88;0.30;;;;;;;7.94;35.01;102302.38;5034648;28;20056;-71
2021/03/18 11:40:55;;;;;;;8.00;0.47;;;;;;;7.99;34.49;102287.59;5029183;28;20134;-71
2021/03/18 11:43:20;;;;;;;0.80;0.50;;;;;;;8.05;34.25;102287.56;5028469;28;20608;-71